sensor_id;sensor_type;location;lat;lon;timestamp;P1;durP1;ratioP1;P2;durP2;ratioP2
81306;SDS011;70775;50.846;3.224;2024-03-06T08:21:44;24.10;;;17.23;;
81306;SDS011;70775;50.846;3.224;2024-03-06T08:24:09;22.67;;;16.77;;
81306;SDS011;70775;50.846;3.224;2024-03-06T08:26:36;26.05;;;17.15;;
81306;SDS011;70775;50.846;3.224;2024-03-06T08:29:01;23.13;;;16.55;;
81306;SDS011;70775;50.846;3.224;2024-03-06T08:31:27;25.42;;;17.58;;
81306;SDS011;70775;50.846;3.224;2024-03-06T08:33:52;27.92;;;17.40;;
81306;SDS011;70775;50.846;3.224;2024-03-06T08:36:19;32.30;;;17.95;;
81306;SDS011;70775;50.846;3.224;2024-03-06T08:38:45;28.02;;;17.98;;
81306;SDS011;70775;50.846;3.224;2024-03-06T08:41:11;30.42;;;19.08;;
81306;SDS011;70775;50.846;3.224;2024-03-06T08:43:37;31.60;;;19.75;;
81306;SDS011;70775;50.846;3.224;2024-03-06T08:46:02;31.95;;;19.00;;
81306;SDS011;70775;50.846;3.224;2024-03-06T08:48:28;30.45;;;19.58;;
81306;SDS011;70775;50.846;3.224;2024-03-06T08:50:54;34.28;;;20.15;;
81306;SDS011;70775;50.846;3.224;2024-03-06T08:53:20;33.17;;;20.00;;
81306;SDS011;70775;50.846;3.224;2024-03-06T08:55:46;32.50;;;18.88;;
81306;SDS011;70775;50.846;3.224;2024-03-06T08:58:12;34.92;;;19.15;;
81306;SDS011;70775;50.846;3.224;2024-03-06T09:00:39;31.15;;;19.02;;
81306;SDS011;70775;50.846;3.224;2024-03-06T09:03:05;32.38;;;19.38;;
81306;SDS011;70775;50.846;3.224;2024-03-06T09:05:30;31.77;;;17.65;;
81306;SDS011;70775;50.846;3.224;2024-03-06T09:07:56;33.20;;;18.80;;
81306;SDS011;70775;50.846;3.224;2024-03-06T09:10:22;36.15;;;20.77;;
81306;SDS011;70775;50.846;3.224;2024-03-06T09:12:48;36.30;;;20.10;;
81306;SDS011;70775;50.846;3.224;2024-03-06T09:15:14;37.72;;;20.30;;
81306;SDS011;70775;50.846;3.224;2024-03-06T09:17:41;41.28;;;21.40;;
81306;SDS011;70775;50.846;3.224;2024-03-06T09:20:07;37.00;;;20.33;;
81306;SDS011;70775;50.846;3.224;2024-03-06T09:22:37;40.20;;;23.23;;
81306;SDS011;70775;50.846;3.224;2024-03-06T09:25:07;36.58;;;20.92;;
81306;SDS011;70775;50.846;3.224;2024-03-06T09:27:33;32.15;;;19.95;;
81306;SDS011;70775;50.846;3.224;2024-03-06T09:29:59;33.00;;;20.25;;
81306;SDS011;70775;50.846;3.224;2024-03-06T09:32:24;38.75;;;20.80;;
81306;SDS011;70775;50.846;3.224;2024-03-06T09:34:51;37.17;;;20.27;;
81306;SDS011;70775;50.846;3.224;2024-03-06T09:37:17;30.85;;;19.38;;
81306;SDS011;70775;50.846;3.224;2024-03-06T09:39:44;34.47;;;20.15;;
81306;SDS011;70775;50.846;3.224;2024-03-06T09:42:12;32.63;;;19.50;;
81306;SDS011;70775;50.846;3.224;2024-03-06T09:44:38;35.03;;;18.90;;
81306;SDS011;70775;50.846;3.224;2024-03-06T09:47:04;34.65;;;21.75;;
81306;SDS011;70775;50.846;3.224;2024-03-06T09:49:32;36.53;;;19.52;;
81306;SDS011;70775;50.846;3.224;2024-03-06T09:51:59;29.92;;;16.23;;
81306;SDS011;70775;50.846;3.224;2024-03-06T09:54:26;32.55;;;18.15;;
81306;SDS011;70775;50.846;3.224;2024-03-06T09:56:52;35.00;;;18.52;;
81306;SDS011;70775;50.846;3.224;2024-03-06T09:59:17;32.65;;;18.63;;
81306;SDS011;70775;50.846;3.224;2024-03-06T10:01:50;30.65;;;16.98;;
81306;SDS011;70775;50.846;3.224;2024-03-06T10:04:20;29.50;;;16.80;;
81306;SDS011;70775;50.846;3.224;2024-03-06T10:06:46;31.10;;;17.65;;
81306;SDS011;70775;50.846;3.224;2024-03-06T10:09:16;30.92;;;18.20;;
81306;SDS011;70775;50.846;3.224;2024-03-06T10:11:42;29.67;;;16.90;;
81306;SDS011;70775;50.846;3.224;2024-03-06T10:14:08;30.85;;;17.77;;
81306;SDS011;70775;50.846;3.224;2024-03-06T10:16:35;27.50;;;16.42;;
81306;SDS011;70775;50.846;3.224;2024-03-06T10:19:16;30.13;;;16.55;;
81306;SDS011;70775;50.846;3.224;2024-03-06T10:21:43;29.83;;;16.35;;
81306;SDS011;70775;50.846;3.224;2024-03-06T10:24:19;25.02;;;15.25;;
81306;SDS011;70775;50.846;3.224;2024-03-06T10:26:46;24.60;;;13.98;;
81306;SDS011;70775;50.846;3.224;2024-03-06T10:29:15;23.55;;;13.52;;
81306;SDS011;70775;50.846;3.224;2024-03-06T10:31:47;28.33;;;16.38;;
81306;SDS011;70775;50.846;3.224;2024-03-06T10:34:14;25.08;;;14.18;;
81306;SDS011;70775;50.846;3.224;2024-03-06T10:36:39;25.88;;;13.85;;
81306;SDS011;70775;50.846;3.224;2024-03-06T10:39:07;24.10;;;13.00;;
81306;SDS011;70775;50.846;3.224;2024-03-06T10:41:35;26.50;;;14.32;;
81306;SDS011;70775;50.846;3.224;2024-03-06T10:44:04;26.58;;;15.38;;
81306;SDS011;70775;50.846;3.224;2024-03-06T10:46:35;26.45;;;15.05;;
81306;SDS011;70775;50.846;3.224;2024-03-06T10:49:01;28.48;;;14.32;;
81306;SDS011;70775;50.846;3.224;2024-03-06T10:51:28;28.75;;;15.95;;
81306;SDS011;70775;50.846;3.224;2024-03-06T10:53:56;27.73;;;15.00;;
81306;SDS011;70775;50.846;3.224;2024-03-06T10:56:23;27.35;;;14.43;;
81306;SDS011;70775;50.846;3.224;2024-03-06T10:58:50;25.55;;;15.60;;
81306;SDS011;70775;50.846;3.224;2024-03-06T11:01:18;23.92;;;14.23;;
81306;SDS011;70775;50.846;3.224;2024-03-06T11:03:44;25.92;;;14.38;;
81306;SDS011;70775;50.846;3.224;2024-03-06T11:06:13;25.45;;;14.38;;
81306;SDS011;70775;50.846;3.224;2024-03-06T11:08:39;23.10;;;13.10;;
81306;SDS011;70775;50.846;3.224;2024-03-06T11:11:23;24.73;;;13.60;;
81306;SDS011;70775;50.846;3.224;2024-03-06T11:13:50;24.92;;;13.75;;
81306;SDS011;70775;50.846;3.224;2024-03-06T11:16:26;25.25;;;13.73;;
81306;SDS011;70775;50.846;3.224;2024-03-06T11:19:07;28.17;;;13.73;;
81306;SDS011;70775;50.846;3.224;2024-03-06T11:21:34;23.15;;;13.38;;
81306;SDS011;70775;50.846;3.224;2024-03-06T11:24:20;26.67;;;14.25;;
81306;SDS011;70775;50.846;3.224;2024-03-06T11:29:19;22.90;;;12.77;;
81306;SDS011;70775;50.846;3.224;2024-03-06T11:34:35;22.63;;;12.70;;
81306;SDS011;70775;50.846;3.224;2024-03-06T11:37:05;26.95;;;13.95;;
81306;SDS011;70775;50.846;3.224;2024-03-06T11:39:34;22.85;;;13.77;;
81306;SDS011;70775;50.846;3.224;2024-03-06T11:42:01;22.70;;;13.35;;
81306;SDS011;70775;50.846;3.224;2024-03-06T11:44:27;18.15;;;11.23;;
81306;SDS011;70775;50.846;3.224;2024-03-06T11:49:28;18.92;;;11.85;;
81306;SDS011;70775;50.846;3.224;2024-03-06T11:54:33;14.90;;;9.05;;
81306;SDS011;70775;50.846;3.224;2024-03-06T11:56:59;18.50;;;11.15;;
81306;SDS011;70775;50.846;3.224;2024-03-06T11:59:28;17.80;;;10.43;;
81306;SDS011;70775;50.846;3.224;2024-03-06T12:01:57;19.55;;;10.15;;
81306;SDS011;70775;50.846;3.224;2024-03-06T12:04:26;17.10;;;10.75;;
81306;SDS011;70775;50.846;3.224;2024-03-06T12:06:52;13.80;;;8.68;;
81306;SDS011;70775;50.846;3.224;2024-03-06T12:09:25;12.52;;;7.18;;
81306;SDS011;70775;50.846;3.224;2024-03-06T12:11:51;16.23;;;8.60;;
81306;SDS011;70775;50.846;3.224;2024-03-06T12:14:18;16.23;;;8.30;;
81306;SDS011;70775;50.846;3.224;2024-03-06T12:16:54;12.43;;;8.05;;
81306;SDS011;70775;50.846;3.224;2024-03-06T12:19:28;11.77;;;7.93;;
81306;SDS011;70775;50.846;3.224;2024-03-06T12:21:59;13.73;;;8.30;;
81306;SDS011;70775;50.846;3.224;2024-03-06T12:24:25;15.20;;;8.38;;
81306;SDS011;70775;50.846;3.224;2024-03-06T12:27:04;18.00;;;8.60;;
81306;SDS011;70775;50.846;3.224;2024-03-06T12:29:32;16.85;;;8.95;;
81306;SDS011;70775;50.846;3.224;2024-03-06T12:31:59;11.60;;;7.60;;
81306;SDS011;70775;50.846;3.224;2024-03-06T12:34:26;11.52;;;8.13;;
81306;SDS011;70775;50.846;3.224;2024-03-06T12:36:51;15.02;;;8.65;;
81306;SDS011;70775;50.846;3.224;2024-03-06T12:42:39;15.07;;;7.93;;
81306;SDS011;70775;50.846;3.224;2024-03-06T12:45:04;10.63;;;6.80;;
81306;SDS011;70775;50.846;3.224;2024-03-06T12:50:54;8.35;;;4.90;;
81306;SDS011;70775;50.846;3.224;2024-03-06T12:53:23;11.05;;;5.82;;
81306;SDS011;70775;50.846;3.224;2024-03-06T12:55:48;7.22;;;4.72;;
81306;SDS011;70775;50.846;3.224;2024-03-06T12:58:14;10.60;;;4.95;;
81306;SDS011;70775;50.846;3.224;2024-03-06T13:00:40;8.27;;;4.90;;
81306;SDS011;70775;50.846;3.224;2024-03-06T13:03:06;8.10;;;3.80;;
81306;SDS011;70775;50.846;3.224;2024-03-06T13:05:32;8.80;;;4.30;;
81306;SDS011;70775;50.846;3.224;2024-03-06T13:07:58;8.45;;;4.38;;
81306;SDS011;70775;50.846;3.224;2024-03-06T13:10:27;8.05;;;4.55;;
81306;SDS011;70775;50.846;3.224;2024-03-06T13:12:53;11.40;;;4.60;;
81306;SDS011;70775;50.846;3.224;2024-03-06T13:15:18;6.45;;;4.38;;
81306;SDS011;70775;50.846;3.224;2024-03-06T13:17:44;6.80;;;4.60;;
81306;SDS011;70775;50.846;3.224;2024-03-06T13:20:10;7.38;;;4.20;;
81306;SDS011;70775;50.846;3.224;2024-03-06T13:22:39;9.98;;;4.22;;
81306;SDS011;70775;50.846;3.224;2024-03-06T13:25:05;7.55;;;4.22;;
81306;SDS011;70775;50.846;3.224;2024-03-06T13:27:31;10.88;;;4.47;;
81306;SDS011;70775;50.846;3.224;2024-03-06T13:29:57;9.18;;;3.72;;
81306;SDS011;70775;50.846;3.224;2024-03-06T13:32:23;4.80;;;3.08;;
81306;SDS011;70775;50.846;3.224;2024-03-06T13:34:49;6.82;;;3.17;;
81306;SDS011;70775;50.846;3.224;2024-03-06T13:37:15;6.22;;;3.55;;
81306;SDS011;70775;50.846;3.224;2024-03-06T13:39:41;7.55;;;3.90;;
81306;SDS011;70775;50.846;3.224;2024-03-06T13:42:07;7.72;;;3.35;;
81306;SDS011;70775;50.846;3.224;2024-03-06T13:44:33;8.23;;;3.45;;
81306;SDS011;70775;50.846;3.224;2024-03-06T13:47:02;7.13;;;3.75;;
81306;SDS011;70775;50.846;3.224;2024-03-06T13:49:35;8.32;;;3.88;;
81306;SDS011;70775;50.846;3.224;2024-03-06T13:52:03;8.98;;;3.70;;
81306;SDS011;70775;50.846;3.224;2024-03-06T13:54:30;8.23;;;3.30;;
81306;SDS011;70775;50.846;3.224;2024-03-06T13:56:56;8.30;;;4.05;;
81306;SDS011;70775;50.846;3.224;2024-03-06T13:59:27;8.30;;;3.95;;
81306;SDS011;70775;50.846;3.224;2024-03-06T14:01:56;7.63;;;3.53;;
81306;SDS011;70775;50.846;3.224;2024-03-06T14:04:22;10.43;;;3.90;;
81306;SDS011;70775;50.846;3.224;2024-03-06T14:06:49;7.60;;;3.97;;
81306;SDS011;70775;50.846;3.224;2024-03-06T14:09:15;9.32;;;4.57;;
81306;SDS011;70775;50.846;3.224;2024-03-06T14:11:41;10.77;;;4.30;;
81306;SDS011;70775;50.846;3.224;2024-03-06T14:14:06;7.57;;;3.85;;
81306;SDS011;70775;50.846;3.224;2024-03-06T14:16:33;6.97;;;3.90;;
81306;SDS011;70775;50.846;3.224;2024-03-06T14:18:59;7.75;;;4.13;;
81306;SDS011;70775;50.846;3.224;2024-03-06T14:21:25;8.52;;;4.00;;
81306;SDS011;70775;50.846;3.224;2024-03-06T14:23:51;7.00;;;3.50;;
81306;SDS011;70775;50.846;3.224;2024-03-06T14:26:17;8.15;;;3.60;;
81306;SDS011;70775;50.846;3.224;2024-03-06T14:28:42;9.35;;;3.40;;
81306;SDS011;70775;50.846;3.224;2024-03-06T14:31:08;9.10;;;3.65;;
81306;SDS011;70775;50.846;3.224;2024-03-06T14:33:37;6.50;;;3.47;;
81306;SDS011;70775;50.846;3.224;2024-03-06T14:36:04;6.25;;;3.80;;
81306;SDS011;70775;50.846;3.224;2024-03-06T14:38:30;6.05;;;3.42;;
81306;SDS011;70775;50.846;3.224;2024-03-06T14:40:56;7.43;;;3.72;;
81306;SDS011;70775;50.846;3.224;2024-03-06T14:43:21;11.00;;;4.18;;
81306;SDS011;70775;50.846;3.224;2024-03-06T14:45:47;8.15;;;4.05;;
81306;SDS011;70775;50.846;3.224;2024-03-06T14:48:13;11.63;;;5.07;;
81306;SDS011;70775;50.846;3.224;2024-03-06T14:50:40;8.50;;;4.60;;
81306;SDS011;70775;50.846;3.224;2024-03-06T14:53:05;9.90;;;4.95;;
81306;SDS011;70775;50.846;3.224;2024-03-06T14:55:31;7.75;;;4.00;;
81306;SDS011;70775;50.846;3.224;2024-03-06T14:57:57;9.93;;;5.13;;
81306;SDS011;70775;50.846;3.224;2024-03-06T15:00:23;9.10;;;4.88;;
81306;SDS011;70775;50.846;3.224;2024-03-06T15:02:49;13.85;;;5.18;;
81306;SDS011;70775;50.846;3.224;2024-03-06T15:05:14;12.20;;;5.00;;
81306;SDS011;70775;50.846;3.224;2024-03-06T15:07:40;12.05;;;5.20;;
81306;SDS011;70775;50.846;3.224;2024-03-06T15:10:06;13.77;;;6.10;;
81306;SDS011;70775;50.846;3.224;2024-03-06T15:12:36;12.98;;;6.53;;
81306;SDS011;70775;50.846;3.224;2024-03-06T15:15:03;10.00;;;5.25;;
81306;SDS011;70775;50.846;3.224;2024-03-06T15:17:31;9.18;;;4.72;;
81306;SDS011;70775;50.846;3.224;2024-03-06T15:19:57;11.73;;;4.85;;
81306;SDS011;70775;50.846;3.224;2024-03-06T15:22:23;13.30;;;5.55;;
81306;SDS011;70775;50.846;3.224;2024-03-06T15:24:49;16.17;;;5.63;;
81306;SDS011;70775;50.846;3.224;2024-03-06T15:27:15;9.85;;;5.18;;
81306;SDS011;70775;50.846;3.224;2024-03-06T15:29:42;9.95;;;5.22;;
81306;SDS011;70775;50.846;3.224;2024-03-06T15:32:08;9.52;;;4.65;;
81306;SDS011;70775;50.846;3.224;2024-03-06T15:34:35;9.18;;;4.22;;
81306;SDS011;70775;50.846;3.224;2024-03-06T15:37:01;9.35;;;4.50;;
81306;SDS011;70775;50.846;3.224;2024-03-06T15:39:27;10.45;;;4.43;;
81306;SDS011;70775;50.846;3.224;2024-03-06T15:41:53;7.57;;;4.60;;
81306;SDS011;70775;50.846;3.224;2024-03-06T15:44:20;9.30;;;4.68;;
81306;SDS011;70775;50.846;3.224;2024-03-06T15:46:46;14.38;;;5.50;;
81306;SDS011;70775;50.846;3.224;2024-03-06T15:49:18;8.95;;;5.05;;
81306;SDS011;70775;50.846;3.224;2024-03-06T15:51:46;9.18;;;4.60;;
81306;SDS011;70775;50.846;3.224;2024-03-06T15:54:11;11.43;;;5.40;;
81306;SDS011;70775;50.846;3.224;2024-03-06T15:56:37;13.80;;;4.93;;
81306;SDS011;70775;50.846;3.224;2024-03-06T15:59:03;8.75;;;5.13;;
81306;SDS011;70775;50.846;3.224;2024-03-06T16:01:28;14.15;;;5.18;;
81306;SDS011;70775;50.846;3.224;2024-03-06T16:03:54;10.73;;;5.95;;
81306;SDS011;70775;50.846;3.224;2024-03-06T16:06:20;14.13;;;6.40;;
81306;SDS011;70775;50.846;3.224;2024-03-06T16:08:45;11.70;;;6.40;;
81306;SDS011;70775;50.846;3.224;2024-03-06T16:11:11;9.40;;;5.07;;
81306;SDS011;70775;50.846;3.224;2024-03-06T16:13:37;9.98;;;5.70;;
81306;SDS011;70775;50.846;3.224;2024-03-06T16:16:03;13.25;;;6.57;;
81306;SDS011;70775;50.846;3.224;2024-03-06T16:18:29;10.65;;;6.22;;
81306;SDS011;70775;50.846;3.224;2024-03-06T16:20:54;13.55;;;6.47;;
81306;SDS011;70775;50.846;3.224;2024-03-06T16:23:20;13.90;;;6.97;;
81306;SDS011;70775;50.846;3.224;2024-03-06T16:25:46;12.95;;;7.00;;
81306;SDS011;70775;50.846;3.224;2024-03-06T16:28:12;14.80;;;6.78;;
81306;SDS011;70775;50.846;3.224;2024-03-06T16:30:38;16.10;;;6.88;;
81306;SDS011;70775;50.846;3.224;2024-03-06T16:33:04;9.63;;;5.07;;
81306;SDS011;70775;50.846;3.224;2024-03-06T16:35:30;9.43;;;4.60;;
81306;SDS011;70775;50.846;3.224;2024-03-06T16:37:57;11.00;;;4.53;;
81306;SDS011;70775;50.846;3.224;2024-03-06T16:40:23;8.98;;;4.88;;
81306;SDS011;70775;50.846;3.224;2024-03-06T16:42:48;16.85;;;7.47;;
81306;SDS011;70775;50.846;3.224;2024-03-06T16:45:14;19.38;;;7.50;;
81306;SDS011;70775;50.846;3.224;2024-03-06T16:47:40;12.98;;;6.25;;
81306;SDS011;70775;50.846;3.224;2024-03-06T16:50:06;12.45;;;5.10;;
81306;SDS011;70775;50.846;3.224;2024-03-06T16:52:32;27.80;;;9.10;;
81306;SDS011;70775;50.846;3.224;2024-03-06T16:54:59;11.73;;;6.43;;
81306;SDS011;70775;50.846;3.224;2024-03-06T16:57:25;22.30;;;7.32;;
81306;SDS011;70775;50.846;3.224;2024-03-06T16:59:50;20.38;;;8.30;;
81306;SDS011;70775;50.846;3.224;2024-03-06T17:02:16;21.23;;;7.20;;
81306;SDS011;70775;50.846;3.224;2024-03-06T17:04:42;16.42;;;7.00;;
81306;SDS011;70775;50.846;3.224;2024-03-06T17:07:07;11.05;;;6.28;;
81306;SDS011;70775;50.846;3.224;2024-03-06T17:09:37;15.38;;;6.78;;
81306;SDS011;70775;50.846;3.224;2024-03-06T17:12:06;30.00;;;11.23;;
81306;SDS011;70775;50.846;3.224;2024-03-06T17:14:35;26.55;;;9.13;;
81306;SDS011;70775;50.846;3.224;2024-03-06T17:17:01;23.42;;;8.65;;
81306;SDS011;70775;50.846;3.224;2024-03-06T17:19:27;17.17;;;8.18;;
81306;SDS011;70775;50.846;3.224;2024-03-06T17:21:53;15.20;;;6.60;;
81306;SDS011;70775;50.846;3.224;2024-03-06T17:24:19;12.90;;;6.97;;
81306;SDS011;70775;50.846;3.224;2024-03-06T17:26:45;13.48;;;7.30;;
81306;SDS011;70775;50.846;3.224;2024-03-06T17:29:11;17.23;;;8.75;;
81306;SDS011;70775;50.846;3.224;2024-03-06T17:31:36;14.60;;;9.27;;
81306;SDS011;70775;50.846;3.224;2024-03-06T17:34:02;20.55;;;9.25;;
81306;SDS011;70775;50.846;3.224;2024-03-06T17:36:29;19.42;;;10.18;;
81306;SDS011;70775;50.846;3.224;2024-03-06T17:38:56;14.93;;;9.88;;
81306;SDS011;70775;50.846;3.224;2024-03-06T17:41:23;21.00;;;9.98;;
81306;SDS011;70775;50.846;3.224;2024-03-06T17:43:49;18.17;;;9.02;;
81306;SDS011;70775;50.846;3.224;2024-03-06T17:46:15;14.30;;;9.48;;
81306;SDS011;70775;50.846;3.224;2024-03-06T17:48:40;17.50;;;9.50;;
81306;SDS011;70775;50.846;3.224;2024-03-06T17:51:06;14.35;;;8.88;;
81306;SDS011;70775;50.846;3.224;2024-03-06T17:53:32;19.65;;;8.57;;
81306;SDS011;70775;50.846;3.224;2024-03-06T17:55:58;14.68;;;7.78;;
81306;SDS011;70775;50.846;3.224;2024-03-06T17:58:28;15.85;;;8.65;;
81306;SDS011;70775;50.846;3.224;2024-03-06T18:00:53;14.82;;;8.20;;
81306;SDS011;70775;50.846;3.224;2024-03-06T18:03:19;14.75;;;7.88;;
81306;SDS011;70775;50.846;3.224;2024-03-06T18:05:48;16.38;;;9.10;;
81306;SDS011;70775;50.846;3.224;2024-03-06T18:08:14;11.50;;;7.47;;
81306;SDS011;70775;50.846;3.224;2024-03-06T18:10:39;16.15;;;8.68;;
81306;SDS011;70775;50.846;3.224;2024-03-06T18:13:05;14.38;;;9.10;;
81306;SDS011;70775;50.846;3.224;2024-03-06T18:15:31;17.92;;;8.13;;
81306;SDS011;70775;50.846;3.224;2024-03-06T18:17:56;18.35;;;9.60;;
81306;SDS011;70775;50.846;3.224;2024-03-06T18:20:22;20.13;;;9.68;;
81306;SDS011;70775;50.846;3.224;2024-03-06T18:22:49;20.90;;;10.10;;
81306;SDS011;70775;50.846;3.224;2024-03-06T18:25:15;17.73;;;8.75;;
81306;SDS011;70775;50.846;3.224;2024-03-06T18:27:41;21.08;;;9.25;;
81306;SDS011;70775;50.846;3.224;2024-03-06T18:30:07;17.30;;;9.23;;
81306;SDS011;70775;50.846;3.224;2024-03-06T18:32:34;22.20;;;9.52;;
81306;SDS011;70775;50.846;3.224;2024-03-06T18:35:00;20.33;;;10.10;;
81306;SDS011;70775;50.846;3.224;2024-03-06T18:37:26;21.95;;;11.15;;
81306;SDS011;70775;50.846;3.224;2024-03-06T18:39:52;15.90;;;9.75;;
81306;SDS011;70775;50.846;3.224;2024-03-06T18:42:18;17.90;;;9.27;;
81306;SDS011;70775;50.846;3.224;2024-03-06T18:44:44;19.20;;;10.60;;
81306;SDS011;70775;50.846;3.224;2024-03-06T18:47:09;18.40;;;9.77;;
81306;SDS011;70775;50.846;3.224;2024-03-06T18:49:35;19.80;;;10.23;;
81306;SDS011;70775;50.846;3.224;2024-03-06T18:52:01;14.73;;;9.13;;
81306;SDS011;70775;50.846;3.224;2024-03-06T18:54:27;15.52;;;8.95;;
81306;SDS011;70775;50.846;3.224;2024-03-06T18:56:53;18.15;;;9.38;;
81306;SDS011;70775;50.846;3.224;2024-03-06T18:59:19;23.40;;;10.68;;
81306;SDS011;70775;50.846;3.224;2024-03-06T19:01:46;21.55;;;10.63;;
81306;SDS011;70775;50.846;3.224;2024-03-06T19:04:13;23.90;;;10.23;;
81306;SDS011;70775;50.846;3.224;2024-03-06T19:06:39;18.65;;;9.30;;
81306;SDS011;70775;50.846;3.224;2024-03-06T19:09:04;15.50;;;9.18;;
81306;SDS011;70775;50.846;3.224;2024-03-06T19:11:31;15.98;;;10.23;;
81306;SDS011;70775;50.846;3.224;2024-03-06T19:13:57;20.10;;;11.10;;
81306;SDS011;70775;50.846;3.224;2024-03-06T19:16:23;20.40;;;10.30;;
81306;SDS011;70775;50.846;3.224;2024-03-06T19:18:49;19.85;;;10.00;;
81306;SDS011;70775;50.846;3.224;2024-03-06T19:21:15;17.73;;;9.88;;
81306;SDS011;70775;50.846;3.224;2024-03-06T19:23:41;17.42;;;10.80;;
81306;SDS011;70775;50.846;3.224;2024-03-06T19:26:06;15.35;;;9.32;;
81306;SDS011;70775;50.846;3.224;2024-03-06T19:28:32;19.63;;;10.82;;
81306;SDS011;70775;50.846;3.224;2024-03-06T19:30:58;21.77;;;11.95;;
81306;SDS011;70775;50.846;3.224;2024-03-06T19:33:28;21.73;;;11.55;;
81306;SDS011;70775;50.846;3.224;2024-03-06T19:35:54;20.80;;;11.10;;
81306;SDS011;70775;50.846;3.224;2024-03-06T19:38:19;23.75;;;11.85;;
81306;SDS011;70775;50.846;3.224;2024-03-06T19:40:45;23.30;;;12.35;;
81306;SDS011;70775;50.846;3.224;2024-03-06T19:43:11;20.45;;;12.02;;
81306;SDS011;70775;50.846;3.224;2024-03-06T19:45:37;25.10;;;12.45;;
81306;SDS011;70775;50.846;3.224;2024-03-06T19:48:03;22.40;;;12.27;;
81306;SDS011;70775;50.846;3.224;2024-03-06T19:50:29;20.70;;;13.00;;
81306;SDS011;70775;50.846;3.224;2024-03-06T19:52:55;26.88;;;14.05;;
81306;SDS011;70775;50.846;3.224;2024-03-06T19:55:21;25.25;;;14.25;;
81306;SDS011;70775;50.846;3.224;2024-03-06T19:57:47;23.55;;;12.20;;
81306;SDS011;70775;50.846;3.224;2024-03-06T20:00:13;27.38;;;13.25;;
81306;SDS011;70775;50.846;3.224;2024-03-06T20:02:41;21.83;;;13.23;;
81306;SDS011;70775;50.846;3.224;2024-03-06T20:05:08;27.63;;;14.95;;
81306;SDS011;70775;50.846;3.224;2024-03-06T20:07:33;22.45;;;14.13;;
81306;SDS011;70775;50.846;3.224;2024-03-06T20:09:59;21.30;;;12.88;;
81306;SDS011;70775;50.846;3.224;2024-03-06T20:12:25;21.15;;;14.02;;
81306;SDS011;70775;50.846;3.224;2024-03-06T20:14:51;30.30;;;15.65;;
81306;SDS011;70775;50.846;3.224;2024-03-06T20:17:16;23.77;;;15.40;;
81306;SDS011;70775;50.846;3.224;2024-03-06T20:19:42;24.63;;;15.35;;
81306;SDS011;70775;50.846;3.224;2024-03-06T20:22:08;26.13;;;15.20;;
81306;SDS011;70775;50.846;3.224;2024-03-06T20:24:33;29.48;;;16.67;;
81306;SDS011;70775;50.846;3.224;2024-03-06T20:26:59;27.70;;;16.95;;
81306;SDS011;70775;50.846;3.224;2024-03-06T20:29:27;34.10;;;19.20;;
81306;SDS011;70775;50.846;3.224;2024-03-06T20:31:53;29.92;;;18.88;;
81306;SDS011;70775;50.846;3.224;2024-03-06T20:34:20;32.00;;;18.33;;
81306;SDS011;70775;50.846;3.224;2024-03-06T20:36:46;34.22;;;18.23;;
81306;SDS011;70775;50.846;3.224;2024-03-06T20:39:11;30.95;;;18.48;;
81306;SDS011;70775;50.846;3.224;2024-03-06T20:41:43;34.33;;;19.00;;
81306;SDS011;70775;50.846;3.224;2024-03-06T20:44:10;30.42;;;18.55;;
81306;SDS011;70775;50.846;3.224;2024-03-06T20:46:37;31.35;;;20.08;;
81306;SDS011;70775;50.846;3.224;2024-03-06T20:49:03;33.75;;;18.65;;
81306;SDS011;70775;50.846;3.224;2024-03-06T20:51:29;36.30;;;19.15;;
81306;SDS011;70775;50.846;3.224;2024-03-06T20:53:55;31.52;;;18.77;;
81306;SDS011;70775;50.846;3.224;2024-03-06T20:56:24;28.88;;;17.08;;
81306;SDS011;70775;50.846;3.224;2024-03-06T20:58:51;34.95;;;19.63;;
81306;SDS011;70775;50.846;3.224;2024-03-06T21:01:17;33.05;;;19.52;;
81306;SDS011;70775;50.846;3.224;2024-03-06T21:03:43;33.35;;;19.85;;
81306;SDS011;70775;50.846;3.224;2024-03-06T21:06:09;32.22;;;18.95;;
81306;SDS011;70775;50.846;3.224;2024-03-06T21:08:38;31.88;;;19.05;;
81306;SDS011;70775;50.846;3.224;2024-03-06T21:11:04;30.30;;;17.80;;
81306;SDS011;70775;50.846;3.224;2024-03-06T21:13:32;31.35;;;18.20;;
81306;SDS011;70775;50.846;3.224;2024-03-06T21:15:58;31.65;;;18.77;;
81306;SDS011;70775;50.846;3.224;2024-03-06T21:18:24;34.10;;;20.00;;
81306;SDS011;70775;50.846;3.224;2024-03-06T21:20:49;33.05;;;19.75;;
81306;SDS011;70775;50.846;3.224;2024-03-06T21:23:15;29.00;;;17.45;;
81306;SDS011;70775;50.846;3.224;2024-03-06T21:25:41;29.48;;;18.13;;
81306;SDS011;70775;50.846;3.224;2024-03-06T21:28:06;32.25;;;19.10;;
81306;SDS011;70775;50.846;3.224;2024-03-06T21:30:32;30.35;;;18.90;;
81306;SDS011;70775;50.846;3.224;2024-03-06T21:32:58;32.60;;;19.75;;
81306;SDS011;70775;50.846;3.224;2024-03-06T21:35:24;31.90;;;18.48;;
81306;SDS011;70775;50.846;3.224;2024-03-06T21:37:51;33.78;;;19.95;;
81306;SDS011;70775;50.846;3.224;2024-03-06T21:40:17;32.78;;;19.83;;
81306;SDS011;70775;50.846;3.224;2024-03-06T21:42:43;31.40;;;19.35;;
81306;SDS011;70775;50.846;3.224;2024-03-06T21:45:10;31.73;;;19.33;;
81306;SDS011;70775;50.846;3.224;2024-03-06T21:47:37;37.35;;;21.58;;
81306;SDS011;70775;50.846;3.224;2024-03-06T21:50:03;33.67;;;19.75;;
81306;SDS011;70775;50.846;3.224;2024-03-06T21:52:33;35.35;;;20.63;;
81306;SDS011;70775;50.846;3.224;2024-03-06T21:54:59;34.13;;;20.90;;
81306;SDS011;70775;50.846;3.224;2024-03-06T21:57:25;33.67;;;19.98;;
81306;SDS011;70775;50.846;3.224;2024-03-06T21:59:52;32.35;;;19.65;;
81306;SDS011;70775;50.846;3.224;2024-03-06T22:02:18;33.25;;;19.67;;
81306;SDS011;70775;50.846;3.224;2024-03-06T22:04:44;37.42;;;21.13;;
81306;SDS011;70775;50.846;3.224;2024-03-06T22:07:10;31.92;;;20.63;;
81306;SDS011;70775;50.846;3.224;2024-03-06T22:09:35;34.97;;;21.60;;
81306;SDS011;70775;50.846;3.224;2024-03-06T22:12:02;33.75;;;19.73;;
81306;SDS011;70775;50.846;3.224;2024-03-06T22:14:28;35.08;;;21.00;;
81306;SDS011;70775;50.846;3.224;2024-03-06T22:16:55;32.38;;;20.23;;
81306;SDS011;70775;50.846;3.224;2024-03-06T22:19:21;33.65;;;20.02;;
81306;SDS011;70775;50.846;3.224;2024-03-06T22:21:50;33.28;;;19.10;;
81306;SDS011;70775;50.846;3.224;2024-03-06T22:24:15;36.42;;;21.35;;
81306;SDS011;70775;50.846;3.224;2024-03-06T22:26:42;35.35;;;21.05;;
81306;SDS011;70775;50.846;3.224;2024-03-06T22:29:08;34.75;;;21.50;;
81306;SDS011;70775;50.846;3.224;2024-03-06T22:31:38;35.25;;;20.60;;
81306;SDS011;70775;50.846;3.224;2024-03-06T22:34:07;34.67;;;21.80;;
81306;SDS011;70775;50.846;3.224;2024-03-06T22:36:32;37.95;;;20.38;;
81306;SDS011;70775;50.846;3.224;2024-03-06T22:38:58;36.08;;;21.38;;
81306;SDS011;70775;50.846;3.224;2024-03-06T22:41:24;30.25;;;19.85;;
81306;SDS011;70775;50.846;3.224;2024-03-06T22:43:50;32.70;;;19.83;;
81306;SDS011;70775;50.846;3.224;2024-03-06T22:46:16;32.13;;;20.25;;
81306;SDS011;70775;50.846;3.224;2024-03-06T22:48:43;30.58;;;19.65;;
81306;SDS011;70775;50.846;3.224;2024-03-06T22:51:09;32.70;;;19.50;;
81306;SDS011;70775;50.846;3.224;2024-03-06T22:53:36;30.83;;;19.30;;
81306;SDS011;70775;50.846;3.224;2024-03-06T22:56:02;34.10;;;19.52;;
81306;SDS011;70775;50.846;3.224;2024-03-06T22:58:28;31.60;;;19.13;;
81306;SDS011;70775;50.846;3.224;2024-03-06T23:00:54;31.98;;;19.02;;
81306;SDS011;70775;50.846;3.224;2024-03-06T23:03:21;31.77;;;20.02;;
81306;SDS011;70775;50.846;3.224;2024-03-06T23:05:46;30.60;;;20.88;;